Time;durP1;ratioP1;P1;durP2;ratioP2;P2;SDS_P1;SDS_P2;PMS_P1;PMS_P2;Temp;Humidity;BMP_temperature;BMP_pressure;BME280_temperature;BME280_humidity;BME280_pressure;Samples;Min_cycle;Max_cycle;Signal;HPM_P1;HPM_P2
2024/02/27 00:01:29;;;;;;;6.22;3.53;;;2.90;99.90;;;;;;5069855;28;20032;-66
2024/02/27 00:03:55;;;;;;;5.32;3.30;;;2.90;99.90;;;;;;5046087;28;20047;-66
2024/02/27 00:06:20;;;;;;;6.70;3.05;;;2.90;99.90;;;;;;5056066;28;20052;-66
2024/02/27 00:08:46;;;;;;;7.70;4.07;;;2.90;99.90;;;;;;5049933;28;20055;-66
2024/02/27 00:11:13;;;;;;;5.65;3.45;;;2.80;99.90;;;;;;5051612;28;20040;-66
2024/02/27 00:13:38;;;;;;;4.60;3.50;;;2.80;99.90;;;;;;5046245;28;20080;-66
2024/02/27 00:16:04;;;;;;;7.50;3.55;;;2.80;99.90;;;;;;5062937;28;20091;-66
2024/02/27 00:18:30;;;;;;;4.93;3.53;;;2.70;99.90;;;;;;5047141;28;20036;-66
2024/02/27 00:20:56;;;;;;;4.53;3.10;;;2.70;99.90;;;;;;5064290;28;20044;-66
2024/02/27 00:23:22;;;;;;;8.13;4.22;;;2.70;99.90;;;;;;5045246;28;20545;-66
2024/02/27 00:25:47;;;;;;;6.82;3.00;;;2.70;99.90;;;;;;5065540;28;20043;-66
2024/02/27 00:28:13;;;;;;;5.22;3.40;;;2.70;99.90;;;;;;5050777;28;20044;-66
2024/02/27 00:30:38;;;;;;;5.20;3.40;;;2.70;99.90;;;;;;5065155;28;20041;-66
2024/02/27 00:33:04;;;;;;;7.78;3.50;;;2.60;99.90;;;;;;5063160;28;20064;-66
2024/02/27 00:35:29;;;;;;;5.05;2.95;;;2.60;99.90;;;;;;5046241;28;20098;-66
2024/02/27 00:37:56;;;;;;;5.70;3.35;;;2.60;99.90;;;;;;5049038;28;20433;-66
2024/02/27 00:40:21;;;;;;;7.53;3.65;;;2.60;99.90;;;;;;5046611;28;20051;-66
2024/02/27 00:42:47;;;;;;;5.82;3.50;;;2.60;99.90;;;;;;5065681;28;20040;-66
2024/02/27 00:45:13;;;;;;;4.90;3.47;;;2.60;99.90;;;;;;5046518;28;20348;-66
2024/02/27 00:47:38;;;;;;;5.47;3.65;;;2.60;99.90;;;;;;5048085;28;20093;-66
2024/02/27 00:50:05;;;;;;;7.32;3.83;;;2.60;99.90;;;;;;5044298;28;20040;-66
2024/02/27 00:52:30;;;;;;;7.65;4.22;;;2.60;99.90;;;;;;5061902;28;20036;-66
2024/02/27 00:54:56;;;;;;;7.32;3.28;;;2.60;99.90;;;;;;5048536;28;20037;-66
2024/02/27 00:57:22;;;;;;;6.03;3.00;;;2.60;99.90;;;;;;5051919;28;20040;-66
2024/02/27 00:59:47;;;;;;;9.43;3.65;;;2.60;99.90;;;;;;5064284;28;20039;-66
2024/02/27 01:02:13;;;;;;;6.55;3.38;;;2.60;99.90;;;;;;5065921;28;20654;-66
2024/02/27 01:04:39;;;;;;;7.32;3.65;;;2.50;99.90;;;;;;5066304;28;20040;-66
2024/02/27 01:07:04;;;;;;;6.90;3.58;;;2.50;99.90;;;;;;5063959;28;20399;-66
2024/02/27 01:09:33;;;;;;;6.03;3.30;;;2.50;99.90;;;;;;5062303;28;20119;-66
2024/02/27 01:11:58;;;;;;;6.43;3.78;;;2.60;99.90;;;;;;5065153;28;20429;-66
2024/02/27 01:14:24;;;;;;;5.63;3.25;;;2.50;99.90;;;;;;5048428;28;20037;-66
2024/02/27 01:16:49;;;;;;;5.63;3.30;;;2.40;99.90;;;;;;5048868;28;20066;-66
2024/02/27 01:19:15;;;;;;;5.45;3.30;;;2.40;99.90;;;;;;5048006;28;20101;-66
2024/02/27 01:21:42;;;;;;;6.32;3.63;;;2.50;99.90;;;;;;5052244;28;20038;-66
2024/02/27 01:24:08;;;;;;;6.75;3.63;;;2.40;99.90;;;;;;5049497;28;20071;-66
2024/02/27 01:26:33;;;;;;;7.90;3.88;;;2.40;99.90;;;;;;5064735;28;20033;-66
2024/02/27 01:29:00;;;;;;;7.10;3.67;;;2.40;99.90;;;;;;5047199;28;20044;-66
2024/02/27 01:31:25;;;;;;;5.50;3.60;;;2.40;99.90;;;;;;5066031;28;21059;-66
2024/02/27 01:33:51;;;;;;;7.90;4.05;;;2.40;99.90;;;;;;5044956;28;20124;-66
2024/02/27 01:36:16;;;;;;;9.25;4.00;;;2.40;99.90;;;;;;5066908;28;20036;-66
2024/02/27 01:38:42;;;;;;;6.00;3.90;;;2.30;99.90;;;;;;5044590;28;20367;-66
2024/02/27 01:41:07;;;;;;;7.78;4.05;;;2.30;99.90;;;;;;5046033;28;20037;-66
2024/02/27 01:43:33;;;;;;;8.50;3.97;;;2.30;99.90;;;;;;5046051;28;20044;-66
2024/02/27 01:46:13;;;;;;;8.57;3.75;;;2.30;99.90;;;;;;5062825;28;20032;-66
2024/02/27 01:48:39;;;;;;;8.75;3.75;;;2.30;99.90;;;;;;5046118;28;20040;-66
2024/02/27 01:51:05;;;;;;;7.78;4.03;;;2.30;99.90;;;;;;5062969;28;20082;-66
2024/02/27 01:53:31;;;;;;;6.45;3.45;;;2.30;99.90;;;;;;5063839;28;20509;-66
2024/02/27 01:55:58;;;;;;;6.55;4.00;;;2.30;99.90;;;;;;5063170;28;20123;-66
2024/02/27 01:58:23;;;;;;;7.68;4.28;;;2.30;99.90;;;;;;5079817;28;20078;-66
2024/02/27 02:00:49;;;;;;;8.32;3.13;;;2.30;99.90;;;;;;5044199;28;20483;-66
2024/02/27 02:03:17;;;;;;;5.78;3.50;;;2.30;99.90;;;;;;5044933;28;20059;-66
2024/02/27 02:05:42;;;;;;;5.78;3.85;;;2.30;99.90;;;;;;5063321;28;20048;-66
2024/02/27 02:08:08;;;;;;;7.90;4.43;;;2.30;99.90;;;;;;5063749;28;20029;-66
2024/02/27 02:10:34;;;;;;;8.13;4.00;;;2.30;99.90;;;;;;5049427;28;20050;-66
2024/02/27 02:12:59;;;;;;;5.68;4.50;;;2.40;99.90;;;;;;5061916;28;20132;-66
2024/02/27 02:15:25;;;;;;;8.95;4.82;;;2.40;99.90;;;;;;5042508;28;20502;-66
2024/02/27 02:17:52;;;;;;;10.35;5.18;;;2.30;99.90;;;;;;5062568;28;20079;-66
2024/02/27 02:20:18;;;;;;;12.52;5.40;;;2.30;99.90;;;;;;5046026;28;20040;-66
2024/02/27 02:22:44;;;;;;;11.93;4.80;;;2.30;99.90;;;;;;5045771;28;20046;-66
2024/02/27 02:25:12;;;;;;;8.13;5.13;;;2.30;99.90;;;;;;5044679;28;20045;-66
2024/02/27 02:27:43;;;;;;;10.75;4.65;;;2.20;99.90;;;;;;5062646;28;20036;-66
2024/02/27 02:30:14;;;;;;;10.52;5.35;;;2.30;99.90;;;;;;5047138;28;20055;-66
2024/02/27 02:32:50;;;;;;;11.07;5.82;;;2.30;99.90;;;;;;5043606;28;20043;-65
2024/02/27 02:35:16;;;;;;;7.20;5.50;;;2.20;99.90;;;;;;5044291;28;20394;-66
2024/02/27 02:37:49;;;;;;;9.02;5.22;;;2.30;99.90;;;;;;5043675;28;20037;-66
2024/02/27 02:40:25;;;;;;;14.98;6.53;;;2.20;99.90;;;;;;5064930;28;20029;-66
2024/02/27 02:42:51;;;;;;;;;;;2.20;99.90;;;;;;5046741;28;20048;-66
2024/02/27 02:45:17;;;;;;;11.23;5.82;;;2.20;99.90;;;;;;5077680;28;20478;-66
2024/02/27 02:47:42;;;;;;;9.90;6.32;;;2.20;99.90;;;;;;5039847;28;20048;-66
2024/02/27 02:50:09;;;;;;;12.30;6.28;;;2.20;99.90;;;;;;5043939;28;20045;-66
2024/02/27 02:52:36;;;;;;;10.95;6.60;;;2.20;99.90;;;;;;5045687;28;20098;-66
2024/02/27 02:55:07;;;;;;;9.55;6.68;;;2.30;99.90;;;;;;5047996;28;20094;-66
2024/02/27 02:57:34;;;;;;;9.75;6.80;;;2.30;99.90;;;;;;5063772;28;20371;-66
2024/02/27 03:00:00;;;;;;;14.00;6.70;;;2.30;99.90;;;;;;5045199;28;20115;-66
2024/02/27 03:02:26;;;;;;;12.90;7.22;;;2.20;99.90;;;;;;5044954;28;20037;-66
2024/02/27 03:04:51;;;;;;;10.90;6.80;;;2.30;99.90;;;;;;5045007;28;20477;-66
2024/02/27 03:07:17;;;;;;;13.90;7.00;;;2.30;99.90;;;;;;5041322;28;20041;-66
2024/02/27 03:09:43;;;;;;;11.35;7.13;;;2.30;99.90;;;;;;5045140;28;20053;-66
2024/02/27 03:12:09;;;;;;;13.18;6.35;;;2.20;99.90;;;;;;5062161;28;20415;-66
2024/02/27 03:14:37;;;;;;;11.45;7.22;;;2.20;99.90;;;;;;5043814;28;20719;-66
2024/02/27 03:17:02;;;;;;;15.07;7.07;;;2.20;99.90;;;;;;5045657;28;20490;-66
2024/02/27 03:19:28;;;;;;;12.27;6.97;;;2.20;99.90;;;;;;5047438;28;20127;-66
2024/02/27 03:21:56;;;;;;;12.15;7.35;;;2.30;99.90;;;;;;5067323;28;20040;-66
2024/02/27 03:24:22;;;;;;;16.48;8.82;;;2.20;99.90;;;;;;5045010;28;20101;-66
2024/02/27 03:26:48;;;;;;;14.55;7.60;;;2.20;99.90;;;;;;5051049;28;20132;-66
2024/02/27 03:29:14;;;;;;;11.00;8.07;;;2.20;99.90;;;;;;5048483;28;20123;-66
2024/02/27 03:31:40;;;;;;;12.40;7.60;;;2.20;99.90;;;;;;5048252;28;20064;-66
2024/02/27 03:34:05;;;;;;;13.90;8.73;;;2.20;99.90;;;;;;5048654;28;20507;-66
2024/02/27 03:36:31;;;;;;;15.95;8.55;;;2.20;99.90;;;;;;5046970;28;20043;-66
2024/02/27 03:38:57;;;;;;;16.67;9.07;;;2.20;99.90;;;;;;5061664;28;20147;-66
2024/02/27 03:41:23;;;;;;;13.88;8.40;;;2.20;99.90;;;;;;5048631;28;20078;-66
2024/02/27 03:43:48;;;;;;;12.70;8.27;;;2.20;99.90;;;;;;5065930;28;20068;-66
2024/02/27 03:46:14;;;;;;;12.88;8.70;;;2.10;99.90;;;;;;5064973;28;20043;-66
2024/02/27 03:48:40;;;;;;;15.25;9.13;;;2.10;99.90;;;;;;5065284;28;20037;-66
2024/02/27 03:51:05;;;;;;;18.30;9.02;;;2.10;99.90;;;;;;5064674;28;20028;-66
2024/02/27 03:53:31;;;;;;;20.45;10.02;;;2.10;99.90;;;;;;5049540;28;20040;-66
2024/02/27 03:55:57;;;;;;;15.02;10.20;;;2.10;99.90;;;;;;5082790;28;20040;-66
2024/02/27 03:58:23;;;;;;;16.80;9.35;;;2.10;99.90;;;;;;5066265;28;20044;-66
2024/02/27 04:00:49;;;;;;;12.95;9.20;;;2.10;99.90;;;;;;5066851;28;20032;-66
2024/02/27 04:03:15;;;;;;;14.88;8.93;;;2.10;99.90;;;;;;5046102;28;20048;-66
2024/02/27 04:05:41;;;;;;;17.48;10.35;;;2.10;99.90;;;;;;5064843;28;20049;-66
2024/02/27 04:08:09;;;;;;;15.73;9.45;;;2.10;99.90;;;;;;5065963;28;20478;-66
2024/02/27 04:10:36;;;;;;;16.77;9.77;;;2.10;99.90;;;;;;5047127;28;20143;-66
2024/02/27 04:13:01;;;;;;;17.70;9.52;;;2.00;99.90;;;;;;5052259;28;20086;-66
2024/02/27 04:15:28;;;;;;;15.25;9.15;;;2.00;99.90;;;;;;5047172;28;20048;-66
2024/02/27 04:17:54;;;;;;;17.88;10.43;;;2.00;99.90;;;;;;5047455;28;20039;-66
2024/02/27 04:20:20;;;;;;;15.55;9.77;;;2.00;99.90;;;;;;5079252;28;20055;-66
2024/02/27 04:22:46;;;;;;;17.50;9.77;;;2.00;99.90;;;;;;5064907;28;20482;-66
2024/02/27 04:25:11;;;;;;;16.83;9.50;;;1.90;99.90;;;;;;5035442;28;20063;-66
2024/02/27 04:27:38;;;;;;;17.73;9.80;;;1.90;99.90;;;;;;5068257;28;20048;-66
2024/02/27 04:30:05;;;;;;;19.55;10.15;;;1.90;99.90;;;;;;5045785;28;20044;-66
2024/02/27 04:32:31;;;;;;;16.92;9.38;;;1.90;99.90;;;;;;5051690;28;20156;-66
2024/02/27 04:34:57;;;;;;;16.17;8.40;;;1.90;99.90;;;;;;5046764;28;20074;-66
2024/02/27 04:37:22;;;;;;;16.08;9.43;;;1.90;99.90;;;;;;5045554;28;20059;-66
2024/02/27 04:39:48;;;;;;;18.98;9.10;;;1.80;99.90;;;;;;5047101;28;20128;-66
2024/02/27 04:42:13;;;;;;;20.33;10.15;;;1.90;99.90;;;;;;5047671;28;20052;-66
2024/02/27 04:44:39;;;;;;;15.32;9.43;;;1.90;99.90;;;;;;5046576;28;20040;-66
2024/02/27 04:47:05;;;;;;;14.52;10.02;;;1.90;99.90;;;;;;5046705;28;20423;-66
2024/02/27 04:49:31;;;;;;;17.13;8.73;;;1.90;99.90;;;;;;5044880;28;20044;-66
2024/02/27 04:51:57;;;;;;;20.10;9.60;;;1.80;99.90;;;;;;5063262;28;20039;-66
2024/02/27 04:54:22;;;;;;;14.27;9.27;;;1.80;99.90;;;;;;5062464;28;20386;-66
2024/02/27 04:56:48;;;;;;;18.95;9.88;;;1.80;99.90;;;;;;5048276;28;20036;-66
2024/02/27 04:59:14;;;;;;;17.33;9.23;;;1.80;99.90;;;;;;5046775;28;20040;-66
2024/02/27 05:01:41;;;;;;;16.50;9.13;;;1.80;99.90;;;;;;5063098;28;20494;-66
2024/02/27 05:04:07;;;;;;;19.83;8.82;;;1.90;99.90;;;;;;5048494;28;20037;-66
2024/02/27 05:06:32;;;;;;;25.67;11.38;;;1.90;99.90;;;;;;5048687;28;20174;-66
2024/02/27 05:08:58;;;;;;;18.25;9.50;;;2.00;99.90;;;;;;5063396;28;20118;-66
2024/02/27 05:11:25;;;;;;;19.58;10.35;;;2.00;99.90;;;;;;5067811;28;20040;-66
2024/02/27 05:13:50;;;;;;;16.80;9.38;;;2.00;99.90;;;;;;5047322;28;20084;-66
2024/02/27 05:16:16;;;;;;;15.50;8.98;;;2.00;99.90;;;;;;5064909;28;20141;-66
2024/02/27 05:18:42;;;;;;;17.75;8.98;;;2.10;99.90;;;;;;5063271;28;20025;-66
2024/02/27 05:21:08;;;;;;;17.33;8.50;;;2.10;99.90;;;;;;5047521;28;20036;-66
2024/02/27 05:23:35;;;;;;;13.50;8.70;;;2.10;99.90;;;;;;5065509;28;20045;-66
2024/02/27 05:26:00;;;;;;;18.15;9.27;;;2.20;99.90;;;;;;5047110;28;20045;-67
2024/02/27 05:28:26;;;;;;;15.82;9.85;;;2.20;99.90;;;;;;5045646;28;20483;-65
2024/02/27 05:30:55;;;;;;;22.60;10.20;;;2.30;99.90;;;;;;5044841;28;20047;-66
2024/02/27 05:33:21;;;;;;;17.38;10.13;;;2.30;99.90;;;;;;5065352;28;20135;-67
2024/02/27 05:35:47;;;;;;;18.92;10.40;;;2.30;99.90;;;;;;5049109;28;20143;-67
2024/02/27 05:38:13;;;;;;;16.02;9.70;;;2.40;99.90;;;;;;5064985;28;20029;-67
2024/02/27 05:40:39;;;;;;;18.38;9.65;;;2.40;99.90;;;;;;5044180;28;20052;-67
2024/02/27 05:43:05;;;;;;;20.02;9.40;;;2.40;99.90;;;;;;5064107;28;20037;-67
2024/02/27 05:45:31;;;;;;;16.92;9.95;;;2.50;99.90;;;;;;5048225;28;20044;-67
2024/02/27 05:47:57;;;;;;;18.42;10.30;;;2.50;99.90;;;;;;5060587;28;20048;-67
2024/02/27 05:50:23;;;;;;;15.15;10.10;;;2.50;99.90;;;;;;5046523;28;20048;-67
2024/02/27 05:52:49;;;;;;;17.30;9.75;;;2.50;99.90;;;;;;5062583;28;20090;-67
2024/02/27 05:55:14;;;;;;;17.13;9.20;;;2.50;99.90;;;;;;5044547;28;20132;-67
2024/02/27 05:57:40;;;;;;;22.52;10.40;;;2.60;99.90;;;;;;5062876;28;20063;-67
2024/02/27 06:00:10;;;;;;;18.70;10.00;;;2.70;99.90;;;;;;5046290;28;20460;-67
2024/02/27 06:02:36;;;;;;;16.25;9.75;;;2.70;99.90;;;;;;5044897;28;21340;-67
2024/02/27 06:05:02;;;;;;;18.60;9.50;;;2.70;99.90;;;;;;5062538;28;20033;-67
2024/02/27 06:07:28;;;;;;;17.92;11.00;;;2.80;99.90;;;;;;5063918;28;20072;-67
2024/02/27 06:09:54;;;;;;;19.55;10.63;;;2.80;99.90;;;;;;5045013;28;20113;-67
2024/02/27 06:12:19;;;;;;;17.70;10.43;;;2.80;99.90;;;;;;5043367;28;20045;-67
2024/02/27 06:14:45;;;;;;;16.88;10.60;;;2.90;99.90;;;;;;5059498;28;20043;-67
2024/02/27 06:17:11;;;;;;;15.93;10.32;;;2.80;99.90;;;;;;5060678;28;20029;-67
2024/02/27 06:19:43;;;;;;;18.13;10.73;;;2.80;99.90;;;;;;5060144;28;20129;-67
2024/02/27 06:22:10;;;;;;;27.38;10.40;;;2.90;99.90;;;;;;5062042;28;20996;-67
2024/02/27 06:24:37;;;;;;;20.65;10.55;;;2.80;99.90;;;;;;5045102;28;20125;-67
2024/02/27 06:27:03;;;;;;;20.48;10.00;;;2.80;99.90;;;;;;5060141;28;20051;-67
2024/02/27 06:29:29;;;;;;;20.70;10.82;;;2.80;99.90;;;;;;5045130;28;20044;-66
2024/02/27 06:31:54;;;;;;;18.42;12.00;;;2.80;99.90;;;;;;5062815;28;20040;-66
2024/02/27 06:34:20;;;;;;;18.85;9.98;;;2.80;99.90;;;;;;5047224;28;20178;-66
2024/02/27 06:36:48;;;;;;;21.20;10.05;;;2.80;99.90;;;;;;5046300;28;20368;-66
2024/02/27 06:39:14;;;;;;;18.92;9.18;;;2.80;99.90;;;;;;5047997;28;20032;-66
2024/02/27 06:41:40;;;;;;;18.60;10.07;;;2.80;99.90;;;;;;5047446;28;20056;-66
2024/02/27 06:44:05;;;;;;;18.58;10.05;;;2.80;99.90;;;;;;5043781;28;20044;-66
2024/02/27 06:46:31;;;;;;;17.77;10.05;;;2.80;99.90;;;;;;5060240;28;20043;-66
2024/02/27 06:48:57;;;;;;;18.55;10.77;;;2.90;99.90;;;;;;5046272;28;20045;-65
2024/02/27 06:51:23;;;;;;;15.48;9.82;;;2.90;99.90;;;;;;5044682;28;20075;-66
2024/02/27 06:53:48;;;;;;;18.30;10.52;;;3.00;99.90;;;;;;5044244;28;20059;-66
2024/02/27 06:56:14;;;;;;;15.77;10.50;;;3.00;99.90;;;;;;5063930;28;20655;-66
2024/02/27 06:58:40;;;;;;;15.82;10.52;;;3.00;99.90;;;;;;5049225;28;20043;-66
2024/02/27 07:01:06;;;;;;;14.13;10.48;;;3.10;99.90;;;;;;5064919;28;20119;-66
2024/02/27 07:03:32;;;;;;;16.73;10.93;;;3.10;99.90;;;;;;5044262;28;20080;-66
2024/02/27 07:06:00;;;;;;;15.13;9.98;;;3.20;99.90;;;;;;5065470;28;20093;-65
2024/02/27 07:08:26;;;;;;;13.40;9.60;;;3.20;99.90;;;;;;5046480;28;20051;-66
2024/02/27 07:10:52;;;;;;;16.63;9.38;;;3.30;99.90;;;;;;5065820;28;20522;-66
2024/02/27 07:13:18;;;;;;;13.55;10.13;;;3.30;99.90;;;;;;5045462;28;20037;-66
2024/02/27 07:15:44;;;;;;;10.25;8.90;;;3.40;99.90;;;;;;5046080;28;20045;-66
2024/02/27 07:18:15;;;;;;;12.82;9.10;;;3.40;99.90;;;;;;5045319;28;20040;-65
2024/02/27 07:20:42;;;;;;;11.38;9.30;;;3.40;99.90;;;;;;5043693;28;20130;-66
2024/02/27 07:23:08;;;;;;;9.85;8.75;;;3.50;99.90;;;;;;5047480;28;20066;-66
2024/02/27 07:25:33;;;;;;;14.77;9.10;;;3.50;99.90;;;;;;5042988;28;20052;-66
2024/02/27 07:27:59;;;;;;;9.43;8.43;;;3.50;99.90;;;;;;5061053;28;20161;-65
2024/02/27 07:30:26;;;;;;;9.82;8.73;;;3.50;99.90;;;;;;5043502;28;20468;-66
2024/02/27 07:32:53;;;;;;;9.55;8.55;;;3.60;99.90;;;;;;5041515;28;20053;-66
2024/02/27 07:35:18;;;;;;;9.57;7.95;;;3.70;99.90;;;;;;5062123;28;20041;-66
2024/02/27 07:37:44;;;;;;;11.95;8.02;;;3.70;99.90;;;;;;5060837;28;20037;-66
2024/02/27 07:40:10;;;;;;;9.82;7.97;;;3.80;99.90;;;;;;5044619;28;20063;-66
2024/02/27 07:42:36;;;;;;;8.35;7.55;;;3.80;99.90;;;;;;5035336;28;20083;-66
2024/02/27 07:45:02;;;;;;;8.27;7.47;;;3.80;99.90;;;;;;5046623;28;20082;-66
2024/02/27 07:47:28;;;;;;;8.18;7.38;;;3.90;99.90;;;;;;5063532;28;20044;-66
2024/02/27 07:49:54;;;;;;;8.32;6.88;;;3.90;99.90;;;;;;5047247;28;20477;-66
2024/02/27 07:52:20;;;;;;;7.53;6.45;;;4.00;99.90;;;;;;5042842;28;20119;-66
2024/02/27 07:54:46;;;;;;;7.03;6.32;;;4.00;99.90;;;;;;5043703;28;20492;-66
2024/02/27 07:57:12;;;;;;;6.80;6.03;;;4.10;99.90;;;;;;5042728;28;20045;-66
2024/02/27 07:59:37;;;;;;;7.43;6.68;;;4.10;99.90;;;;;;5045308;28;20132;-66
2024/02/27 08:02:03;;;;;;;7.18;6.47;;;4.20;99.90;;;;;;5052019;28;20047;-66
2024/02/27 08:04:29;;;;;;;7.93;6.80;;;4.20;99.90;;;;;;5063407;28;20123;-66
2024/02/27 08:06:54;;;;;;;6.95;6.25;;;4.20;99.90;;;;;;5047614;28;20152;-66
2024/02/27 08:09:20;;;;;;;8.70;6.88;;;4.30;99.90;;;;;;5047462;28;20486;-66
2024/02/27 08:11:46;;;;;;;7.57;6.75;;;4.30;99.90;;;;;;5062906;28;20075;-66
2024/02/27 08:14:11;;;;;;;6.38;5.78;;;4.30;99.90;;;;;;5041402;28;20040;-66
2024/02/27 08:16:37;;;;;;;7.25;5.93;;;4.40;99.90;;;;;;5062683;28;20549;-66
2024/02/27 08:19:05;;;;;;;6.97;6.15;;;4.40;99.90;;;;;;5047897;28;20413;-66
2024/02/27 08:21:34;;;;;;;7.63;6.32;;;4.40;99.90;;;;;;5046040;28;20036;-66
2024/02/27 08:24:00;;;;;;;8.02;6.53;;;4.40;99.90;;;;;;5045429;28;20052;-65
2024/02/27 08:26:26;;;;;;;7.57;6.82;;;4.40;99.90;;;;;;5064206;28;20390;-66
2024/02/27 08:28:52;;;;;;;6.03;5.43;;;4.50;99.90;;;;;;5044738;28;20036;-66
2024/02/27 08:31:19;;;;;;;7.85;6.07;;;4.50;99.90;;;;;;5044521;28;20145;-66
2024/02/27 08:33:44;;;;;;;6.32;5.72;;;4.50;99.90;;;;;;5062203;28;20037;-66
2024/02/27 08:36:10;;;;;;;6.85;5.38;;;4.50;99.90;;;;;;5037626;28;20058;-66
2024/02/27 08:38:36;;;;;;;8.38;5.70;;;4.50;99.90;;;;;;5043349;28;20501;-66
2024/02/27 08:41:01;;;;;;;7.55;6.13;;;4.50;99.90;;;;;;5043023;28;20072;-66
2024/02/27 08:43:27;;;;;;;7.22;6.07;;;4.50;99.90;;;;;;5060253;28;20134;-66
2024/02/27 08:45:53;;;;;;;9.43;5.68;;;4.50;99.90;;;;;;5044926;28;20166;-66
2024/02/27 08:48:18;;;;;;;7.65;6.72;;;4.50;99.90;;;;;;5060513;28;20490;-66
2024/02/27 08:50:47;;;;;;;6.80;6.20;;;4.50;99.90;;;;;;5045060;28;20545;-66
2024/02/27 08:53:13;;;;;;;9.10;6.35;;;4.50;99.90;;;;;;5051831;28;20806;-66
2024/02/27 08:55:39;;;;;;;8.70;6.57;;;4.60;99.90;;;;;;5064990;28;20116;-66
2024/02/27 08:58:05;;;;;;;6.75;6.15;;;4.60;99.90;;;;;;5044204;28;20123;-66
2024/02/27 09:00:31;;;;;;;7.85;6.78;;;4.60;99.90;;;;;;5043773;28;20052;-66
2024/02/27 09:02:58;;;;;;;10.13;5.95;;;4.70;99.90;;;;;;5042509;28;20044;-66
2024/02/27 09:05:24;;;;;;;6.10;5.05;;;4.70;99.90;;;;;;5039531;28;20056;-66
2024/02/27 09:07:50;;;;;;;6.97;6.15;;;4.70;99.90;;;;;;5052892;28;20050;-66
2024/02/27 09:10:17;;;;;;;7.13;6.43;;;4.70;99.90;;;;;;5063730;28;20036;-66
2024/02/27 09:12:43;;;;;;;8.15;6.40;;;4.70;99.90;;;;;;5057678;28;20564;-66
2024/02/27 09:15:09;;;;;;;7.38;6.50;;;5.00;99.90;;;;;;5040967;28;20119;-66
2024/02/27 09:17:35;;;;;;;8.13;6.18;;;4.80;99.90;;;;;;5041470;28;20029;-66
2024/02/27 09:20:02;;;;;;;7.47;6.80;;;4.80;99.90;;;;;;5058414;28;20091;-66
2024/02/27 09:22:28;;;;;;;7.18;6.47;;;4.80;99.90;;;;;;5039621;28;20090;-66
2024/02/27 09:24:53;;;;;;;9.02;6.57;;;4.80;99.90;;;;;;5041274;28;20493;-66
2024/02/27 09:27:23;;;;;;;7.75;6.22;;;4.90;99.90;;;;;;5043816;28;20079;-66
2024/02/27 09:29:52;;;;;;;8.88;6.43;;;4.90;99.90;;;;;;5041135;28;20409;-66
2024/02/27 09:32:22;;;;;;;6.15;5.65;;;4.90;99.90;;;;;;5059500;28;20409;-66
2024/02/27 09:34:49;;;;;;;5.60;5.10;;;4.90;99.90;;;;;;5045358;28;20044;-66
2024/02/27 09:37:15;;;;;;;6.32;5.47;;;4.90;99.90;;;;;;5042198;28;20075;-66
2024/02/27 09:39:41;;;;;;;5.70;5.13;;;4.90;99.90;;;;;;5059189;28;20068;-66
2024/02/27 09:42:13;;;;;;;5.20;4.70;;;4.80;99.90;;;;;;5046831;28;20074;-66
2024/02/27 09:44:44;;;;;;;5.10;4.70;;;4.80;99.90;;;;;;5052006;28;20040;-66
2024/02/27 09:47:11;;;;;;;5.47;4.97;;;4.90;99.90;;;;;;5060593;28;20044;-66
2024/02/27 09:49:43;;;;;;;5.97;5.35;;;4.90;99.90;;;;;;5059707;28;20429;-66
2024/02/27 09:52:15;;;;;;;6.35;5.75;;;4.80;99.90;;;;;;5064315;28;20032;-66
2024/02/27 09:54:42;;;;;;;6.65;5.43;;;4.80;99.90;;;;;;5058191;28;20033;-66
2024/02/27 09:57:08;;;;;;;6.63;5.93;;;4.90;99.90;;;;;;5062761;28;20075;-65
2024/02/27 09:59:35;;;;;;;6.95;6.25;;;4.90;99.90;;;;;;5040153;28;20064;-66
2024/02/27 10:02:05;;;;;;;6.93;6.32;;;4.90;99.90;;;;;;5039156;28;20048;-66
2024/02/27 10:04:34;;;;;;;9.32;6.85;;;5.00;99.90;;;;;;5059473;28;20126;-66
2024/02/27 10:07:02;;;;;;;7.03;5.40;;;5.10;99.90;;;;;;5039953;28;20049;-66
2024/02/27 10:09:29;;;;;;;7.63;6.90;;;5.00;99.90;;;;;;5041908;28;20041;-66
2024/02/27 10:11:54;;;;;;;6.13;5.63;;;4.90;99.90;;;;;;5042145;28;20044;-66
2024/02/27 10:14:34;;;;;;;9.57;6.57;;;5.00;99.90;;;;;;5028346;28;20452;-66
2024/02/27 10:17:03;;;;;;;7.72;6.75;;;5.00;99.90;;;;;;5058943;28;20497;-66
2024/02/27 10:19:29;;;;;;;7.25;6.55;;;5.00;99.90;;;;;;5058478;28;20525;-66
2024/02/27 10:21:56;;;;;;;7.30;6.70;;;5.00;99.90;;;;;;5054590;28;20079;-66
2024/02/27 10:24:25;;;;;;;7.53;6.75;;;4.90;99.90;;;;;;5041639;28;20048;-66
2024/02/27 10:26:58;;;;;;;8.23;7.43;;;5.00;99.90;;;;;;5056182;28;20509;-66
2024/02/27 10:29:28;;;;;;;8.18;7.45;;;5.00;99.90;;;;;;5039533;28;20485;-66
2024/02/27 10:31:54;;;;;;;7.63;6.93;;;4.90;99.90;;;;;;5057632;28;20056;-66
2024/02/27 10:34:21;;;;;;;9.02;8.23;;;4.90;99.90;;;;;;5038330;28;20056;-66
2024/02/27 10:37:03;;;;;;;8.77;7.90;;;4.90;99.90;;;;;;5041751;28;20086;-66
2024/02/27 10:39:31;;;;;;;8.20;7.43;;;4.90;99.90;;;;;;5041469;28;20101;-66
2024/02/27 10:41:57;;;;;;;9.25;8.40;;;4.90;99.90;;;;;;5044161;28;20072;-66
2024/02/27 10:44:23;;;;;;;10.93;8.32;;;5.00;99.90;;;;;;5055752;28;20468;-66
2024/02/27 10:46:49;;;;;;;9.98;8.98;;;4.90;99.90;;;;;;5052573;28;20372;-66
2024/02/27 10:49:16;;;;;;;9.55;8.65;;;5.00;99.90;;;;;;5060064;28;20123;-66
2024/02/27 10:51:43;;;;;;;8.75;7.80;;;5.00;99.90;;;;;;5059526;28;20037;-66
2024/02/27 10:54:09;;;;;;;8.35;7.55;;;5.10;99.90;;;;;;5041390;28;20045;-66
2024/02/27 10:56:36;;;;;;;11.77;8.80;;;5.20;99.90;;;;;;5042375;28;20036;-66
2024/02/27 10:59:03;;;;;;;9.27;8.43;;;5.20;99.90;;;;;;5038867;28;20482;-66
2024/02/27 11:01:31;;;;;;;10.02;9.13;;;5.20;99.90;;;;;;5051069;28;20175;-66
2024/02/27 11:04:01;;;;;;;11.13;10.02;;;5.30;99.90;;;;;;5041558;28;20048;-66
2024/02/27 11:06:28;;;;;;;9.63;8.45;;;5.20;99.90;;;;;;5061377;28;20076;-66
2024/02/27 11:08:59;;;;;;;10.02;9.13;;;5.20;99.90;;;;;;5025178;28;20041;-66
2024/02/27 11:11:25;;;;;;;9.02;8.15;;;5.30;99.90;;;;;;5049650;28;20044;-66
2024/02/27 11:13:52;;;;;;;9.27;8.38;;;5.40;99.90;;;;;;5036612;28;20406;-66
2024/02/27 11:16:21;;;;;;;9.23;8.43;;;5.50;99.90;;;;;;5037629;28;20388;-66
2024/02/27 11:18:51;;;;;;;8.45;7.72;;;5.50;99.90;;;;;;5039753;28;20127;-66
2024/02/27 11:21:18;;;;;;;8.65;7.75;;;5.60;99.90;;;;;;5040560;28;20175;-66
2024/02/27 11:23:44;;;;;;;9.27;8.13;;;5.60;99.90;;;;;;5024002;28;20075;-66
2024/02/27 11:26:10;;;;;;;8.95;8.15;;;5.70;99.90;;;;;;5042456;28;20524;-66
2024/02/27 11:28:38;;;;;;;9.10;8.20;;;5.90;99.90;;;;;;5036945;28;20174;-66
2024/02/27 11:31:04;;;;;;;9.07;8.27;;;6.00;99.90;;;;;;5039088;28;20052;-66
2024/02/27 11:33:51;;;;;;;9.00;8.18;;;6.00;99.90;;;;;;5043145;28;20241;-66
2024/02/27 11:36:17;;;;;;;9.02;8.18;;;6.10;99.90;;;;;;5042317;28;20071;-65
2024/02/27 11:38:43;;;;;;;9.35;8.52;;;6.20;99.90;;;;;;5039982;28;20080;-66
2024/02/27 11:41:17;;;;;;;8.90;8.00;;;6.20;99.90;;;;;;5059777;28;20040;-66
2024/02/27 11:43:50;;;;;;;7.95;7.25;;;6.30;99.90;;;;;;5044807;28;20045;-66
2024/02/27 11:46:30;;;;;;;8.70;7.88;;;6.30;99.90;;;;;;5040974;28;20056;-66
2024/02/27 11:49:00;;;;;;;9.20;7.88;;;6.40;99.90;;;;;;5044474;28;20102;-66
2024/02/27 11:51:32;;;;;;;8.65;7.85;;;6.30;99.90;;;;;;5064012;28;20044;-66
2024/02/27 11:53:58;;;;;;;9.43;8.50;;;6.30;99.90;;;;;;5059816;28;20048;-66
2024/02/27 11:56:25;;;;;;;8.85;8.07;;;6.20;99.90;;;;;;5046217;28;20037;-66
2024/02/27 11:58:54;;;;;;;8.43;7.63;;;6.30;99.90;;;;;;5061235;28;20048;-66
2024/02/27 12:01:22;;;;;;;9.63;8.48;;;6.50;99.90;;;;;;5043119;28;20040;-66
2024/02/27 12:03:48;;;;;;;8.88;7.97;;;6.60;99.90;;;;;;5039696;28;20109;-66
2024/02/27 12:06:14;;;;;;;8.75;7.90;;;6.60;99.90;;;;;;5052973;28;20052;-66
2024/02/27 12:08:44;;;;;;;9.30;8.45;;;6.70;99.90;;;;;;5040862;28;20055;-66
2024/02/27 12:11:10;;;;;;;10.07;8.18;;;6.80;99.90;;;;;;5045533;28;20076;-66
2024/02/27 12:13:35;;;;;;;8.60;7.70;;;6.90;99.90;;;;;;5060763;28;20498;-67
2024/02/27 12:16:01;;;;;;;8.82;8.02;;;7.10;99.90;;;;;;5033965;28;20463;-66
2024/02/27 12:18:27;;;;;;;8.43;7.70;;;7.20;99.90;;;;;;5048224;28;20439;-66
2024/02/27 12:20:54;;;;;;;9.02;8.20;;;7.20;99.90;;;;;;5032092;28;20047;-66
2024/02/27 12:23:21;;;;;;;8.93;8.10;;;7.30;99.90;;;;;;5039125;28;20046;-66
2024/02/27 12:25:47;;;;;;;8.27;7.50;;;7.90;99.90;;;;;;5042373;28;20068;-66
2024/02/27 12:28:16;;;;;;;7.90;7.10;;;7.40;99.90;;;;;;5065713;28;20048;-66
2024/02/27 12:30:46;;;;;;;8.38;7.68;;;7.50;99.90;;;;;;5060961;28;20072;-66
2024/02/27 12:33:12;;;;;;;8.55;7.85;;;7.60;99.90;;;;;;5043495;28;20410;-67
2024/02/27 12:35:37;;;;;;;8.02;7.43;;;7.50;99.90;;;;;;5040684;28;20089;-66
2024/02/27 12:38:03;;;;;;;8.70;7.85;;;7.70;99.90;;;;;;5053201;28;20047;-66
2024/02/27 12:40:29;;;;;;;9.55;7.10;;;7.80;99.90;;;;;;5059613;28;20044;-66
2024/02/27 12:42:55;;;;;;;7.97;6.97;;;8.00;99.90;;;;;;5060000;28;20124;-66
2024/02/27 12:45:21;;;;;;;7.85;7.15;;;8.20;99.90;;;;;;5065143;28;20124;-66
2024/02/27 12:47:48;;;;;;;9.43;8.52;;;8.40;99.90;;;;;;5048612;28;20044;-67
2024/02/27 12:50:24;;;;;;;8.15;7.45;;;8.60;99.90;;;;;;5044683;28;20109;-67